This is the latest recevied weather packets stored in our database for station/object KK7ISX. If no packets are shown the sender has not sent any weather packets the latest 1 day(s).
| Time | Temp. | Humidity | Pressure | Rain* | Wind** | Luminosity | Snow |
|---|---|---|---|---|---|---|---|
| 1777999226 | 18.33° C | 41% | 1010.7 hPa | 0 mm | 0.89 m/s, 259° | 556 W/m² | - |
| 1777998925 | 19.44° C | 42% | 1010.8 hPa | 0 mm | 2.24 m/s, 220° | 542 W/m² | - |
| 1777998621 | 18.33° C | 42% | 1011 hPa | 0 mm | 0.89 m/s, 215° | 529 W/m² | - |
| 1777998325 | 18.89° C | 42% | 1010.6 hPa | 0 mm | 3.13 m/s, 227° | 514 W/m² | - |
| 1777998011 | 18.33° C | 42% | 1011 hPa | 0 mm | 1.79 m/s, 197° | 500 W/m² | - |
| 1777997708 | 18.89° C | 41% | 1010.8 hPa | 0 mm | 1.79 m/s, 142° | 483 W/m² | - |
| 1777997406 | 18.33° C | 42% | 1010.8 hPa | 0 mm | 2.68 m/s, 206° | 468 W/m² | - |
| 1777997103 | 18.33° C | 42% | 1010.6 hPa | 0 mm | 1.34 m/s, 183° | 451 W/m² | - |
| 1777996799 | 17.78° C | 42% | 1010.6 hPa | 0 mm | 1.34 m/s, 212° | 433 W/m² | - |
| 1777996496 | 18.33° C | 42% | 1010.5 hPa | 0 mm | 2.68 m/s, 214° | 416 W/m² | - |
| 1777996193 | 17.78° C | 42% | 1010.4 hPa | 0 mm | 3.13 m/s, 212° | 399 W/m² | - |
| 1777995889 | 17.78° C | 43% | 1010.7 hPa | 0 mm | 2.24 m/s, 225° | 381 W/m² | - |
| 1777995585 | 17.78° C | 44% | 1010.4 hPa | 0 mm | 3.13 m/s, 200° | 365 W/m² | - |
| 1777995284 | 17.78° C | 46% | 1010.6 hPa | 0 mm | 2.68 m/s, 245° | 348 W/m² | - |
| 1777994980 | 17.22° C | 50% | 1010.7 hPa | 0 mm | 1.79 m/s, 219° | 332 W/m² | - |
| 1777994678 | 16.67° C | 52% | 1010.5 hPa | 0 mm | 1.79 m/s, 211° | 315 W/m² | - |
| 1777994377 | 17.22° C | 52% | 1010.6 hPa | 0 mm | 0.89 m/s, 163° | 297 W/m² | - |
| 1777994073 | 16.67° C | 52% | 1010.6 hPa | 0 mm | 0.89 m/s, 156° | 129 W/m² | - |
| 1777993771 | 16.67° C | 52% | 1010.5 hPa | 0 mm | 1.79 m/s, 198° | 267 W/m² | - |
| 1777993468 | 16.67° C | 51% | 1010.6 hPa | 0 mm | 1.34 m/s, 198° | 252 W/m² | - |
| 1777993167 | 16.11° C | 54% | 1010.5 hPa | 0 mm | 1.34 m/s, 231° | 236 W/m² | - |
| 1777992865 | 15.56° C | 55% | 1010.5 hPa | 0 mm | 0.89 m/s, 236° | 224 W/m² | - |
| 1777992563 | 15.56° C | 56% | 1010.5 hPa | 0 mm | 0.89 m/s, 216° | 210 W/m² | - |
| 1777992261 | 15° C | 57% | 1010.5 hPa | 0 mm | 0.89 m/s, 203° | 197 W/m² | - |
| 1777991958 | 15° C | 59% | 1010.4 hPa | 0 mm | 0.45 m/s, 172° | 61 W/m² | - |
* Rain latest hour (hover to see other rain measurements)
** Current wind speed in m/s (hover to see current wind gust speed)